sensor_id;sensor_type;location;lat;lon;timestamp;pressure;altitude;pressure_sealevel;temperature;humidity
75072;BME280;63651;55.728;38.022;2023-11-21T00:01:05;98907.88;;;12.89;29.93
75072;BME280;63651;55.728;38.022;2023-11-21T00:06:06;98906.47;;;13.10;29.02
75072;BME280;63651;55.728;38.022;2023-11-21T00:11:10;98881.91;;;12.87;29.99
75072;BME280;63651;55.728;38.022;2023-11-21T00:16:11;98896.50;;;12.92;30.11
75072;BME280;63651;55.728;38.022;2023-11-21T00:21:12;98903.13;;;12.96;29.76
75072;BME280;63651;55.728;38.022;2023-11-21T00:26:13;98894.28;;;13.01;29.50
75072;BME280;63651;55.728;38.022;2023-11-21T00:31:15;98899.09;;;12.87;29.55
75072;BME280;63651;55.728;38.022;2023-11-21T00:36:16;98900.66;;;12.95;29.45
75072;BME280;63651;55.728;38.022;2023-11-21T00:41:17;98903.00;;;12.91;29.34
75072;BME280;63651;55.728;38.022;2023-11-21T00:46:18;98892.47;;;12.95;29.83
75072;BME280;63651;55.728;38.022;2023-11-21T00:51:20;98895.44;;;12.93;29.35
75072;BME280;63651;55.728;38.022;2023-11-21T00:56:21;98889.97;;;12.93;29.82
75072;BME280;63651;55.728;38.022;2023-11-21T01:01:23;98897.09;;;12.94;29.43
75072;BME280;63651;55.728;38.022;2023-11-21T01:06:25;98886.41;;;12.81;28.92
75072;BME280;63651;55.728;38.022;2023-11-21T01:11:26;98894.25;;;12.89;29.53
75072;BME280;63651;55.728;38.022;2023-11-21T01:16:27;98888.44;;;12.74;29.19
75072;BME280;63651;55.728;38.022;2023-11-21T01:21:28;98883.47;;;12.94;28.95
75072;BME280;63651;55.728;38.022;2023-11-21T01:26:29;98885.47;;;12.99;28.24
75072;BME280;63651;55.728;38.022;2023-11-21T01:31:30;98876.94;;;12.95;28.67
75072;BME280;63651;55.728;38.022;2023-11-21T01:36:32;98878.13;;;12.88;28.37
75072;BME280;63651;55.728;38.022;2023-11-21T01:41:34;98889.13;;;12.81;28.84
75072;BME280;63651;55.728;38.022;2023-11-21T01:46:36;98885.09;;;12.72;28.50
75072;BME280;63651;55.728;38.022;2023-11-21T01:51:39;98887.00;;;12.83;28.38
75072;BME280;63651;55.728;38.022;2023-11-21T01:56:41;98882.03;;;12.80;28.41
75072;BME280;63651;55.728;38.022;2023-11-21T02:02:00;98889.59;;;12.66;28.40
75072;BME280;63651;55.728;38.022;2023-11-21T02:07:20;98893.88;;;12.62;28.84
75072;BME280;63651;55.728;38.022;2023-11-21T02:12:42;98893.16;;;12.67;29.42
75072;BME280;63651;55.728;38.022;2023-11-21T02:36:51;98895.66;;;12.80;28.65
75072;BME280;63651;55.728;38.022;2023-11-21T02:42:10;98892.44;;;12.60;29.23
75072;BME280;63651;55.728;38.022;2023-11-21T02:47:30;98895.19;;;12.83;28.91
75072;BME280;63651;55.728;38.022;2023-11-21T02:52:50;98897.44;;;12.74;28.58
75072;BME280;63651;55.728;38.022;2023-11-21T02:58:10;98907.97;;;12.59;28.97
75072;BME280;63651;55.728;38.022;2023-11-21T03:03:29;98918.16;;;12.64;29.57
75072;BME280;63651;55.728;38.022;2023-11-21T03:08:49;98912.94;;;12.74;28.72
75072;BME280;63651;55.728;38.022;2023-11-21T03:14:08;98929.66;;;12.66;28.69
75072;BME280;63651;55.728;38.022;2023-11-21T03:19:28;98926.19;;;12.59;29.28
75072;BME280;63651;55.728;38.022;2023-11-21T03:24:48;98935.00;;;12.72;28.28
75072;BME280;63651;55.728;38.022;2023-11-21T03:30:08;98944.34;;;12.65;28.51
75072;BME280;63651;55.728;38.022;2023-11-21T03:35:28;98954.50;;;12.58;28.95
75072;BME280;63651;55.728;38.022;2023-11-21T03:40:47;98961.13;;;12.50;29.27
75072;BME280;63651;55.728;38.022;2023-11-21T03:46:06;98957.09;;;12.53;28.83
75072;BME280;63651;55.728;38.022;2023-11-21T03:51:27;98967.75;;;12.54;29.61
75072;BME280;63651;55.728;38.022;2023-11-21T03:56:46;98954.03;;;12.61;32.74
75072;BME280;63651;55.728;38.022;2023-11-21T04:02:06;98949.69;;;12.71;32.16
75072;BME280;63651;55.728;38.022;2023-11-21T04:07:26;98952.50;;;12.65;31.70
75072;BME280;63651;55.728;38.022;2023-11-21T04:12:46;98954.19;;;12.77;30.74
75072;BME280;63651;55.728;38.022;2023-11-21T04:18:06;98960.91;;;12.63;30.53
75072;BME280;63651;55.728;38.022;2023-11-21T04:23:27;98949.41;;;12.61;30.08
75072;BME280;63651;55.728;38.022;2023-11-21T04:28:46;98944.91;;;12.55;29.82
75072;BME280;63651;55.728;38.022;2023-11-21T04:33:47;98953.44;;;12.59;29.73
75072;BME280;63651;55.728;38.022;2023-11-21T04:38:48;98956.09;;;12.77;29.52
75072;BME280;63651;55.728;38.022;2023-11-21T04:43:50;98952.28;;;12.78;28.94
75072;BME280;63651;55.728;38.022;2023-11-21T04:48:51;98970.16;;;12.62;29.69
75072;BME280;63651;55.728;38.022;2023-11-21T04:53:52;98966.03;;;12.71;28.95
75072;BME280;63651;55.728;38.022;2023-11-21T04:58:53;98968.00;;;12.53;30.32
75072;BME280;63651;55.728;38.022;2023-11-21T05:03:54;98970.91;;;12.81;29.70
75072;BME280;63651;55.728;38.022;2023-11-21T05:08:59;98973.41;;;12.82;29.51
75072;BME280;63651;55.728;38.022;2023-11-21T05:14:00;98981.31;;;12.72;29.88
75072;BME280;63651;55.728;38.022;2023-11-21T05:19:03;98985.97;;;12.83;30.08
75072;BME280;63651;55.728;38.022;2023-11-21T05:24:05;98991.19;;;12.97;29.36
75072;BME280;63651;55.728;38.022;2023-11-21T05:29:06;98990.56;;;12.83;29.76
75072;BME280;63651;55.728;38.022;2023-11-21T05:34:07;98994.16;;;12.95;29.75
75072;BME280;63651;55.728;38.022;2023-11-21T05:39:08;98978.03;;;12.94;29.05
75072;BME280;63651;55.728;38.022;2023-11-21T05:44:09;98988.75;;;13.07;28.95
75072;BME280;63651;55.728;38.022;2023-11-21T05:49:10;99002.69;;;12.99;29.16
75072;BME280;63651;55.728;38.022;2023-11-21T05:54:11;98993.16;;;13.08;28.69
75072;BME280;63651;55.728;38.022;2023-11-21T05:59:12;99001.56;;;13.06;29.28
75072;BME280;63651;55.728;38.022;2023-11-21T06:04:13;99014.16;;;13.19;28.83
75072;BME280;63651;55.728;38.022;2023-11-21T06:09:15;99004.81;;;13.27;28.30
75072;BME280;63651;55.728;38.022;2023-11-21T06:14:16;99012.41;;;13.25;28.29
75072;BME280;63651;55.728;38.022;2023-11-21T06:19:18;99011.94;;;13.28;28.67
75072;BME280;63651;55.728;38.022;2023-11-21T06:24:19;99027.34;;;13.34;28.32
75072;BME280;63651;55.728;38.022;2023-11-21T06:29:22;99023.78;;;13.45;28.66
75072;BME280;63651;55.728;38.022;2023-11-21T06:34:23;99022.38;;;13.42;28.66
75072;BME280;63651;55.728;38.022;2023-11-21T06:39:24;99026.41;;;13.52;28.34
75072;BME280;63651;55.728;38.022;2023-11-21T06:44:25;99034.59;;;13.52;28.52
75072;BME280;63651;55.728;38.022;2023-11-21T06:49:26;99025.09;;;13.66;27.96
75072;BME280;63651;55.728;38.022;2023-11-21T06:54:27;99038.72;;;13.77;28.38
75072;BME280;63651;55.728;38.022;2023-11-21T06:59:28;99027.69;;;13.84;28.23
75072;BME280;63651;55.728;38.022;2023-11-21T07:04:29;99027.22;;;13.87;28.45
75072;BME280;63651;55.728;38.022;2023-11-21T07:09:31;99021.72;;;13.99;28.02
75072;BME280;63651;55.728;38.022;2023-11-21T07:14:32;99010.16;;;14.20;26.98
75072;BME280;63651;55.728;38.022;2023-11-21T07:19:33;99013.75;;;14.09;27.27
75072;BME280;63651;55.728;38.022;2023-11-21T07:24:36;98990.59;;;14.12;27.48
75072;BME280;63651;55.728;38.022;2023-11-21T07:29:37;99009.91;;;14.22;26.55
75072;BME280;63651;55.728;38.022;2023-11-21T07:34:38;99024.28;;;14.17;26.80
75072;BME280;63651;55.728;38.022;2023-11-21T07:39:39;99027.38;;;14.32;26.45
75072;BME280;63651;55.728;38.022;2023-11-21T07:44:42;99020.75;;;14.05;26.85
75072;BME280;63651;55.728;38.022;2023-11-21T07:49:43;99007.75;;;14.24;25.94
75072;BME280;63651;55.728;38.022;2023-11-21T07:54:45;99011.56;;;14.23;26.18
75072;BME280;63651;55.728;38.022;2023-11-21T07:59:46;99024.09;;;14.07;26.60
75072;BME280;63651;55.728;38.022;2023-11-21T08:04:47;99031.66;;;14.17;26.16
75072;BME280;63651;55.728;38.022;2023-11-21T08:09:50;99021.56;;;14.17;26.93
75072;BME280;63651;55.728;38.022;2023-11-21T08:14:51;99019.88;;;14.28;25.68
75072;BME280;63651;55.728;38.022;2023-11-21T08:19:52;99023.09;;;14.25;26.09
75072;BME280;63651;55.728;38.022;2023-11-21T08:24:53;99021.91;;;14.44;25.79
75072;BME280;63651;55.728;38.022;2023-11-21T08:29:56;99027.72;;;14.36;25.92
75072;BME280;63651;55.728;38.022;2023-11-21T08:34:58;99025.56;;;14.38;26.61
75072;BME280;63651;55.728;38.022;2023-11-21T08:39:59;99013.81;;;14.37;26.58
75072;BME280;63651;55.728;38.022;2023-11-21T08:45:00;99014.31;;;14.63;25.97
75072;BME280;63651;55.728;38.022;2023-11-21T08:50:02;99024.25;;;14.40;26.15
75072;BME280;63651;55.728;38.022;2023-11-21T08:55:04;99031.38;;;14.41;26.23
75072;BME280;63651;55.728;38.022;2023-11-21T09:00:08;99041.03;;;14.44;26.52
75072;BME280;63651;55.728;38.022;2023-11-21T09:05:14;99043.63;;;14.39;26.48
75072;BME280;63651;55.728;38.022;2023-11-21T09:10:15;99043.84;;;14.49;26.05
75072;BME280;63651;55.728;38.022;2023-11-21T09:15:16;99059.44;;;14.37;25.79
75072;BME280;63651;55.728;38.022;2023-11-21T09:20:17;99053.25;;;14.41;25.99
75072;BME280;63651;55.728;38.022;2023-11-21T09:25:18;99056.59;;;14.44;25.58
75072;BME280;63651;55.728;38.022;2023-11-21T09:30:20;99056.59;;;14.44;25.83
75072;BME280;63651;55.728;38.022;2023-11-21T09:35:21;99062.88;;;14.44;25.89
75072;BME280;63651;55.728;38.022;2023-11-21T09:40:23;99059.22;;;14.67;25.49
75072;BME280;63651;55.728;38.022;2023-11-21T09:45:28;99063.78;;;14.61;24.77
75072;BME280;63651;55.728;38.022;2023-11-21T09:50:32;99058.34;;;14.38;25.29
75072;BME280;63651;55.728;38.022;2023-11-21T09:55:35;99050.63;;;14.47;24.76
75072;BME280;63651;55.728;38.022;2023-11-21T10:00:44;99064.66;;;14.38;25.68
75072;BME280;63651;55.728;38.022;2023-11-21T10:05:48;99047.31;;;14.33;25.59
75072;BME280;63651;55.728;38.022;2023-11-21T10:10:53;99048.38;;;14.44;25.77
75072;BME280;63651;55.728;38.022;2023-11-21T10:15:54;99057.88;;;14.41;25.75
75072;BME280;63651;55.728;38.022;2023-11-21T10:20:55;99047.66;;;14.48;25.27
75072;BME280;63651;55.728;38.022;2023-11-21T10:25:57;99050.66;;;14.35;25.21
75072;BME280;63651;55.728;38.022;2023-11-21T10:31:00;99050.41;;;14.48;25.21
75072;BME280;63651;55.728;38.022;2023-11-21T10:36:01;99047.31;;;14.45;25.81
75072;BME280;63651;55.728;38.022;2023-11-21T10:41:03;99055.50;;;14.45;26.10
75072;BME280;63651;55.728;38.022;2023-11-21T10:46:08;99063.47;;;14.46;26.46
75072;BME280;63651;55.728;38.022;2023-11-21T10:51:09;99061.91;;;14.50;25.98
75072;BME280;63651;55.728;38.022;2023-11-21T10:56:13;99059.63;;;14.59;25.77
75072;BME280;63651;55.728;38.022;2023-11-21T11:01:19;99050.00;;;14.56;25.93
75072;BME280;63651;55.728;38.022;2023-11-21T11:06:24;99064.13;;;14.65;26.29
75072;BME280;63651;55.728;38.022;2023-11-21T11:11:28;99063.78;;;14.61;25.78
75072;BME280;63651;55.728;38.022;2023-11-21T11:16:31;99064.78;;;14.44;26.46
75072;BME280;63651;55.728;38.022;2023-11-21T11:33:12;99074.41;;;14.46;26.71
75072;BME280;63651;55.728;38.022;2023-11-21T11:38:21;99048.50;;;14.25;26.55
75072;BME280;63651;55.728;38.022;2023-11-21T11:43:25;99074.06;;;14.43;26.11
75072;BME280;63651;55.728;38.022;2023-11-21T11:48:26;99064.53;;;14.22;26.23
75072;BME280;63651;55.728;38.022;2023-11-21T11:53:33;99080.00;;;14.16;26.94
75072;BME280;63651;55.728;38.022;2023-11-21T11:58:38;99070.69;;;14.29;25.97
75072;BME280;63651;55.728;38.022;2023-11-21T12:03:39;99086.78;;;14.14;26.79
75072;BME280;63651;55.728;38.022;2023-11-21T12:08:41;99085.69;;;14.15;26.29
75072;BME280;63651;55.728;38.022;2023-11-21T12:13:42;99093.16;;;14.19;26.98
75072;BME280;63651;55.728;38.022;2023-11-21T12:18:43;99108.25;;;14.22;27.07
75072;BME280;63651;55.728;38.022;2023-11-21T12:23:44;99111.94;;;14.16;26.89
75072;BME280;63651;55.728;38.022;2023-11-21T12:28:54;99077.16;;;14.11;26.27
75072;BME280;63651;55.728;38.022;2023-11-21T12:33:56;99118.94;;;14.23;26.59
75072;BME280;63651;55.728;38.022;2023-11-21T12:38:58;99111.34;;;14.14;26.46
75072;BME280;63651;55.728;38.022;2023-11-21T12:43:59;99104.81;;;14.15;26.16
75072;BME280;63651;55.728;38.022;2023-11-21T12:49:00;99107.81;;;14.01;26.25
75072;BME280;63651;55.728;38.022;2023-11-21T12:54:01;99112.19;;;13.91;26.58
75072;BME280;63651;55.728;38.022;2023-11-21T12:59:02;99118.25;;;13.93;26.71
75072;BME280;63651;55.728;38.022;2023-11-21T13:04:07;99114.44;;;13.82;26.87
75072;BME280;63651;55.728;38.022;2023-11-21T13:09:11;99135.22;;;13.83;26.75
75072;BME280;63651;55.728;38.022;2023-11-21T13:14:14;99135.69;;;13.92;26.78
75072;BME280;63651;55.728;38.022;2023-11-21T13:19:15;99147.81;;;13.84;26.42
75072;BME280;63651;55.728;38.022;2023-11-21T13:24:17;99143.66;;;13.82;26.79
75072;BME280;63651;55.728;38.022;2023-11-21T13:29:18;99159.09;;;13.88;26.97
75072;BME280;63651;55.728;38.022;2023-11-21T13:34:21;99161.81;;;13.88;26.73
75072;BME280;63651;55.728;38.022;2023-11-21T13:39:23;99165.75;;;13.92;26.27
75072;BME280;63651;55.728;38.022;2023-11-21T13:44:24;99158.94;;;13.71;26.38
75072;BME280;63651;55.728;38.022;2023-11-21T13:49:35;99183.28;;;13.72;26.67
75072;BME280;63651;55.728;38.022;2023-11-21T13:54:41;99179.38;;;13.68;26.72
75072;BME280;63651;55.728;38.022;2023-11-21T13:59:42;99169.06;;;13.82;27.12
75072;BME280;63651;55.728;38.022;2023-11-21T14:04:44;99183.28;;;13.72;26.83
75072;BME280;63651;55.728;38.022;2023-11-21T14:10:04;99195.66;;;13.87;26.28
75072;BME280;63651;55.728;38.022;2023-11-21T14:15:09;99194.66;;;13.58;26.97
75072;BME280;63651;55.728;38.022;2023-11-21T14:20:12;99194.44;;;13.71;26.56
75072;BME280;63651;55.728;38.022;2023-11-21T14:25:16;99206.88;;;13.67;26.88
75072;BME280;63651;55.728;38.022;2023-11-21T14:30:18;99210.94;;;13.76;26.67
75072;BME280;63651;55.728;38.022;2023-11-21T14:35:21;99211.38;;;13.61;26.89
75072;BME280;63651;55.728;38.022;2023-11-21T14:40:23;99218.03;;;13.65;26.97
75072;BME280;63651;55.728;38.022;2023-11-21T14:45:25;99211.53;;;13.66;26.81
75072;BME280;63651;55.728;38.022;2023-11-21T14:50:27;99217.94;;;13.72;26.71
75072;BME280;63651;55.728;38.022;2023-11-21T14:55:43;99226.00;;;13.67;26.77
75072;BME280;63651;55.728;38.022;2023-11-21T15:00:50;99227.56;;;13.74;26.50
75072;BME280;63651;55.728;38.022;2023-11-21T15:05:53;99226.97;;;13.72;26.54
75072;BME280;63651;55.728;38.022;2023-11-21T15:10:54;99226.97;;;13.84;26.19
75072;BME280;63651;55.728;38.022;2023-11-21T15:15:56;99228.38;;;13.75;26.45
75072;BME280;63651;55.728;38.022;2023-11-21T15:20:58;99243.06;;;13.62;26.63
75072;BME280;63651;55.728;38.022;2023-11-21T15:25:59;99227.91;;;13.66;26.55
75072;BME280;63651;55.728;38.022;2023-11-21T15:31:00;99236.44;;;13.70;27.21
75072;BME280;63651;55.728;38.022;2023-11-21T15:36:03;99233.63;;;13.76;26.26
75072;BME280;63651;55.728;38.022;2023-11-21T15:41:05;99237.31;;;13.94;28.06
75072;BME280;63651;55.728;38.022;2023-11-21T15:46:09;99241.94;;;13.82;27.28
75072;BME280;63651;55.728;38.022;2023-11-21T15:51:10;99244.84;;;13.57;28.31
75072;BME280;63651;55.728;38.022;2023-11-21T15:56:13;99244.03;;;13.68;28.12
75072;BME280;63651;55.728;38.022;2023-11-21T16:01:14;99242.00;;;13.63;28.50
75072;BME280;63651;55.728;38.022;2023-11-21T16:06:16;99244.03;;;13.68;28.47
75072;BME280;63651;55.728;38.022;2023-11-21T16:11:17;99244.78;;;13.75;28.20
75072;BME280;63651;55.728;38.022;2023-11-21T16:16:21;99227.91;;;13.66;29.32
75072;BME280;63651;55.728;38.022;2023-11-21T16:21:22;99243.13;;;13.86;29.85
75072;BME280;63651;55.728;38.022;2023-11-21T16:26:23;99233.34;;;13.66;29.75
75072;BME280;63651;55.728;38.022;2023-11-21T16:31:24;99248.22;;;13.82;29.47
75072;BME280;63651;55.728;38.022;2023-11-21T16:36:25;99246.91;;;13.73;29.54
75072;BME280;63651;55.728;38.022;2023-11-21T16:41:26;99253.19;;;13.73;29.75
75072;BME280;63651;55.728;38.022;2023-11-21T16:46:27;99246.34;;;13.94;29.19
75072;BME280;63651;55.728;38.022;2023-11-21T16:51:28;99245.13;;;13.78;29.08
75072;BME280;63651;55.728;38.022;2023-11-21T16:56:30;99245.59;;;13.75;29.50
75072;BME280;63651;55.728;38.022;2023-11-21T17:01:31;99248.34;;;13.75;30.70
75072;BME280;63651;55.728;38.022;2023-11-21T17:06:32;99240.75;;;13.89;31.57
75072;BME280;63651;55.728;38.022;2023-11-21T17:11:33;99262.91;;;13.69;32.35
75072;BME280;63651;55.728;38.022;2023-11-21T17:16:35;99251.53;;;13.72;32.59
75072;BME280;63651;55.728;38.022;2023-11-21T17:21:36;99255.66;;;13.63;32.78
75072;BME280;63651;55.728;38.022;2023-11-21T17:26:37;99243.97;;;13.86;31.72
75072;BME280;63651;55.728;38.022;2023-11-21T17:31:38;99250.56;;;13.67;31.72
75072;BME280;63651;55.728;38.022;2023-11-21T17:36:40;99238.69;;;13.61;30.76
75072;BME280;63651;55.728;38.022;2023-11-21T17:41:41;99252.97;;;13.75;29.56
75072;BME280;63651;55.728;38.022;2023-11-21T17:46:42;99256.47;;;13.64;29.58
75072;BME280;63651;55.728;38.022;2023-11-21T17:51:44;99246.41;;;13.64;30.22
75072;BME280;63651;55.728;38.022;2023-11-21T17:56:46;99255.56;;;13.70;30.14
75072;BME280;63651;55.728;38.022;2023-11-21T18:01:48;99262.31;;;13.67;29.38
75072;BME280;63651;55.728;38.022;2023-11-21T18:06:49;99258.41;;;13.75;28.92
75072;BME280;63651;55.728;38.022;2023-11-21T18:11:50;99255.72;;;13.87;28.46
75072;BME280;63651;55.728;38.022;2023-11-21T18:16:51;99254.13;;;13.67;28.96
75072;BME280;63651;55.728;38.022;2023-11-21T18:21:52;99268.13;;;13.71;27.36
75072;BME280;63651;55.728;38.022;2023-11-21T18:26:53;99263.53;;;13.41;26.62
75072;BME280;63651;55.728;38.022;2023-11-21T18:31:55;99261.94;;;13.16;26.78
75072;BME280;63651;55.728;38.022;2023-11-21T18:36:56;99260.81;;;13.05;26.53
75072;BME280;63651;55.728;38.022;2023-11-21T18:41:57;99262.00;;;12.91;26.33
75072;BME280;63651;55.728;38.022;2023-11-21T18:47:00;99267.16;;;12.62;26.42
75072;BME280;63651;55.728;38.022;2023-11-21T18:52:01;99276.44;;;12.55;26.92
75072;BME280;63651;55.728;38.022;2023-11-21T18:57:04;99263.44;;;12.57;26.69
75072;BME280;63651;55.728;38.022;2023-11-21T19:02:05;99272.13;;;12.47;26.56
75072;BME280;63651;55.728;38.022;2023-11-21T19:07:09;99260.00;;;12.43;26.23
75072;BME280;63651;55.728;38.022;2023-11-21T19:12:10;99263.66;;;12.12;26.72
75072;BME280;63651;55.728;38.022;2023-11-21T19:17:14;99270.03;;;12.24;26.46
75072;BME280;63651;55.728;38.022;2023-11-21T19:22:15;99273.88;;;12.16;26.23
75072;BME280;63651;55.728;38.022;2023-11-21T19:27:16;99279.91;;;11.94;26.68
75072;BME280;63651;55.728;38.022;2023-11-21T19:32:17;99285.31;;;12.00;26.79
75072;BME280;63651;55.728;38.022;2023-11-21T19:37:18;99280.53;;;11.96;27.23
75072;BME280;63651;55.728;38.022;2023-11-21T19:42:19;99288.69;;;11.96;27.11
75072;BME280;63651;55.728;38.022;2023-11-21T19:47:21;99287.66;;;11.97;26.98
75072;BME280;63651;55.728;38.022;2023-11-21T19:52:22;99282.66;;;11.94;26.53
75072;BME280;63651;55.728;38.022;2023-11-21T19:57:26;99286.63;;;11.91;26.82
75072;BME280;63651;55.728;38.022;2023-11-21T20:02:27;99284.00;;;11.78;26.57
75072;BME280;63651;55.728;38.022;2023-11-21T20:07:29;99286.06;;;11.82;26.85
75072;BME280;63651;55.728;38.022;2023-11-21T20:12:32;99295.28;;;11.81;26.71
75072;BME280;63651;55.728;38.022;2023-11-21T20:17:33;99314.34;;;11.75;26.74
75072;BME280;63651;55.728;38.022;2023-11-21T20:22:34;99303.50;;;11.62;27.08
75072;BME280;63651;55.728;38.022;2023-11-21T20:27:36;99306.88;;;11.57;27.54
75072;BME280;63651;55.728;38.022;2023-11-21T20:32:37;99310.41;;;11.64;27.46
75072;BME280;63651;55.728;38.022;2023-11-21T20:37:39;99302.09;;;11.52;27.57
75072;BME280;63651;55.728;38.022;2023-11-21T20:42:40;99314.25;;;11.50;27.95
75072;BME280;63651;55.728;38.022;2023-11-21T20:47:43;99311.72;;;11.55;27.48
75072;BME280;63651;55.728;38.022;2023-11-21T20:52:44;99311.97;;;11.47;27.58
75072;BME280;63651;55.728;38.022;2023-11-21T20:57:45;99310.09;;;11.47;27.56
75072;BME280;63651;55.728;38.022;2023-11-21T21:02:46;99321.84;;;11.35;27.79
75072;BME280;63651;55.728;38.022;2023-11-21T21:07:50;99328.94;;;11.42;28.18
75072;BME280;63651;55.728;38.022;2023-11-21T21:12:52;99336.22;;;11.48;27.66
75072;BME280;63651;55.728;38.022;2023-11-21T21:17:54;99338.72;;;11.50;27.53
75072;BME280;63651;55.728;38.022;2023-11-21T21:22:55;99328.34;;;11.34;27.80
75072;BME280;63651;55.728;38.022;2023-11-21T21:27:57;99329.81;;;11.30;28.52
75072;BME280;63651;55.728;38.022;2023-11-21T21:32:58;99329.22;;;11.28;28.41
75072;BME280;63651;55.728;38.022;2023-11-21T21:38:01;99332.72;;;11.35;28.02
75072;BME280;63651;55.728;38.022;2023-11-21T21:43:04;99329.25;;;11.14;28.27
75072;BME280;63651;55.728;38.022;2023-11-21T21:48:06;99326.94;;;11.18;28.36
75072;BME280;63651;55.728;38.022;2023-11-21T21:53:08;99322.50;;;11.30;28.07
75072;BME280;63651;55.728;38.022;2023-11-21T21:58:13;99328.63;;;11.19;28.32
75072;BME280;63651;55.728;38.022;2023-11-21T22:03:14;99324.88;;;11.13;28.79
75072;BME280;63651;55.728;38.022;2023-11-21T22:08:15;99324.91;;;11.07;28.85
75072;BME280;63651;55.728;38.022;2023-11-21T22:13:18;99311.72;;;11.10;28.39
75072;BME280;63651;55.728;38.022;2023-11-21T22:18:19;99312.34;;;11.12;28.62
75072;BME280;63651;55.728;38.022;2023-11-21T22:23:20;99307.88;;;11.25;27.69
75072;BME280;63651;55.728;38.022;2023-11-21T22:28:21;99314.44;;;11.04;28.30
75072;BME280;63651;55.728;38.022;2023-11-21T22:33:22;99314.66;;;11.09;27.80
75072;BME280;63651;55.728;38.022;2023-11-21T22:38:24;99311.75;;;10.97;28.11
75072;BME280;63651;55.728;38.022;2023-11-21T22:43:25;99334.09;;;11.06;28.04
75072;BME280;63651;55.728;38.022;2023-11-21T22:48:27;99342.69;;;11.03;28.30
75072;BME280;63651;55.728;38.022;2023-11-21T22:53:28;99346.22;;;11.10;28.42
75072;BME280;63651;55.728;38.022;2023-11-21T22:58:29;99348.50;;;11.13;27.89
75072;BME280;63651;55.728;38.022;2023-11-21T23:03:30;99353.09;;;11.12;27.86
75072;BME280;63651;55.728;38.022;2023-11-21T23:08:31;99355.88;;;10.93;27.82
75072;BME280;63651;55.728;38.022;2023-11-21T23:13:32;99361.91;;;11.01;28.21
75072;BME280;63651;55.728;38.022;2023-11-21T23:18:33;99368.41;;;10.94;28.39
75072;BME280;63651;55.728;38.022;2023-11-21T23:23:34;99370.91;;;10.95;28.12
75072;BME280;63651;55.728;38.022;2023-11-21T23:28:35;99367.16;;;10.89;28.37
75072;BME280;63651;55.728;38.022;2023-11-21T23:33:36;99371.34;;;10.92;28.37
75072;BME280;63651;55.728;38.022;2023-11-21T23:38:37;99367.81;;;10.85;28.79
75072;BME280;63651;55.728;38.022;2023-11-21T23:43:42;99368.41;;;11.00;28.40
75072;BME280;63651;55.728;38.022;2023-11-21T23:48:43;99362.97;;;11.00;27.58
75072;BME280;63651;55.728;38.022;2023-11-21T23:53:44;99362.38;;;10.78;28.53
75072;BME280;63651;55.728;38.022;2023-11-21T23:58:45;99351.91;;;10.88;28.09
